createdAt,value
2019-02-04T00:03:21.554Z,2.80
2019-02-04T00:14:30.323Z,2.70
2019-02-04T00:19:32.844Z,2.70
2019-02-04T00:24:35.607Z,2.80
2019-02-04T00:29:38.160Z,2.70
2019-02-04T00:34:41.355Z,2.80
2019-02-04T00:39:44.158Z,2.80
2019-02-04T00:44:46.719Z,2.70
2019-02-04T00:49:49.087Z,2.70
2019-02-04T00:54:51.612Z,2.60
2019-02-04T00:59:54.302Z,2.50
2019-02-04T01:04:56.839Z,2.50
2019-02-04T01:09:59.790Z,2.40
2019-02-04T01:15:02.443Z,2.40
2019-02-04T01:20:06.136Z,2.40
2019-02-04T01:25:09.771Z,2.40
2019-02-04T01:30:12.786Z,2.40
2019-02-04T01:35:15.387Z,2.30
2019-02-04T01:40:20.617Z,2.20
2019-02-04T01:45:23.254Z,2.20
2019-02-04T01:50:27.023Z,2.00
2019-02-04T01:55:29.635Z,1.90
2019-02-04T02:00:35.093Z,1.80
2019-02-04T02:05:37.826Z,1.70
2019-02-04T02:10:40.348Z,1.60
2019-02-04T02:15:42.879Z,1.60
2019-02-04T02:20:45.413Z,1.40
2019-02-04T02:25:48.042Z,1.30
2019-02-04T02:30:51.859Z,1.20
2019-02-04T02:35:54.375Z,1.10
2019-02-04T02:40:57.995Z,1.00
2019-02-04T02:46:00.536Z,0.90
2019-02-04T02:51:03.155Z,0.80
2019-02-04T02:56:05.668Z,0.80
2019-02-04T03:01:08.462Z,0.70
2019-02-04T03:06:11.329Z,0.70
2019-02-04T03:11:14.039Z,0.50
2019-02-04T03:16:16.526Z,0.30
2019-02-04T03:21:19.042Z,0.10
2019-02-04T03:26:21.616Z,-0.20
2019-02-04T03:31:24.173Z,-0.50
2019-02-04T03:36:27.018Z,-0.90
2019-02-04T03:41:29.511Z,-1.20
2019-02-04T03:46:32.025Z,-1.60
2019-02-04T03:51:34.655Z,-2.00
2019-02-04T03:56:37.242Z,-2.50
2019-02-04T04:01:41.420Z,-3.00
2019-02-04T04:06:43.898Z,-3.30
2019-02-04T04:11:46.399Z,-3.50
2019-02-04T04:16:48.936Z,-3.70
2019-02-04T04:21:51.459Z,-3.90
2019-02-04T04:26:54.031Z,-4.00
2019-02-04T04:31:56.485Z,-4.00
2019-02-04T04:36:58.986Z,-4.10
2019-02-04T04:42:01.550Z,-4.20
2019-02-04T04:47:04.726Z,-4.30
2019-02-04T04:52:07.296Z,-4.40
2019-02-04T04:57:09.834Z,-4.50
2019-02-04T05:02:12.577Z,-4.60
2019-02-04T05:07:16.058Z,-4.70
2019-02-04T05:12:18.789Z,-4.60
2019-02-04T05:17:21.772Z,-4.50
2019-02-04T05:22:25.636Z,-4.50
2019-02-04T05:27:31.609Z,-4.50
2019-02-04T05:32:38.098Z,-4.40
2019-02-04T05:37:41.504Z,-4.40
2019-02-04T05:42:44.891Z,-4.30
2019-02-04T05:47:51.549Z,-4.30
2019-02-04T05:53:00.933Z,-4.40
2019-02-04T05:58:04.041Z,-4.50
2019-02-04T06:03:07.582Z,-4.70
2019-02-04T06:08:10.924Z,-4.80
2019-02-04T06:13:14.460Z,-4.90
2019-02-04T06:18:17.670Z,-5.00
2019-02-04T06:23:21.048Z,-5.20
2019-02-04T06:28:27.322Z,-5.30
2019-02-04T06:33:30.986Z,-5.30
2019-02-04T06:38:37.262Z,-5.30
2019-02-04T06:43:40.355Z,-5.40
2019-02-04T06:48:43.862Z,-5.50
2019-02-04T06:53:46.957Z,-5.40
2019-02-04T06:58:50.634Z,-5.40
2019-02-04T07:03:53.650Z,-5.40
2019-02-04T07:08:58.570Z,-5.40
2019-02-04T07:14:01.694Z,-5.30
2019-02-04T07:19:05.404Z,-5.30
2019-02-04T07:24:08.884Z,-7.50
2019-02-04T07:29:11.984Z,-5.30
2019-02-04T07:34:16.280Z,-5.10
2019-02-04T07:39:19.557Z,-5.00
2019-02-04T07:44:23.361Z,-4.90
2019-02-04T07:49:35.033Z,-4.70
2019-02-04T07:54:31.080Z,-4.60
2019-02-04T07:59:34.697Z,-4.50
2019-02-04T08:04:37.779Z,-4.30
2019-02-04T08:09:40.663Z,-4.20
2019-02-04T08:14:45.282Z,-4.20
2019-02-04T08:19:49.599Z,-4.00
2019-02-04T08:24:52.950Z,-3.90
2019-02-04T08:29:56.503Z,-3.80
2019-02-04T08:34:59.763Z,-3.70
2019-02-04T08:40:03.343Z,-3.50
2019-02-04T08:45:06.699Z,-3.40
2019-02-04T08:50:14.026Z,-3.30
2019-02-04T08:55:18.951Z,-3.20
2019-02-04T09:00:23.963Z,-3.10
2019-02-04T09:10:55.580Z,-3.00
2019-02-04T09:16:03.400Z,-2.70
2019-02-04T09:21:10.192Z,-2.40
2019-02-04T09:26:12.915Z,-2.20
2019-02-04T09:31:21.659Z,-1.90
2019-02-04T09:36:48.475Z,-1.50
2019-02-04T09:41:53.264Z,-1.20
2019-02-04T09:46:56.160Z,-0.80
2019-02-04T09:51:58.873Z,-0.50
2019-02-04T09:57:03.148Z,-0.10
2019-02-04T10:02:06.409Z,0.20
2019-02-04T10:07:11.160Z,0.50
2019-02-04T10:12:14.196Z,0.80
2019-02-04T10:17:16.948Z,1.00
2019-02-04T10:22:19.830Z,1.30
2019-02-04T10:27:22.824Z,1.60
2019-02-04T10:32:26.103Z,1.80
2019-02-04T10:37:29.506Z,2.00
2019-02-04T10:42:32.185Z,2.20
2019-02-04T10:47:35.443Z,2.40
2019-02-04T10:52:38.005Z,2.70
2019-02-04T10:57:42.107Z,2.80
2019-02-04T11:02:45.058Z,3.00
2019-02-04T11:07:47.696Z,3.10
2019-02-04T11:12:50.606Z,3.30
2019-02-04T11:17:53.623Z,3.50
2019-02-04T11:22:56.622Z,3.70
2019-02-04T11:27:59.676Z,3.80
2019-02-04T11:33:02.658Z,3.90
2019-02-04T11:38:05.828Z,4.00
2019-02-04T11:43:09.973Z,4.10
2019-02-04T11:48:15.700Z,4.10
2019-02-04T11:53:18.203Z,4.20
2019-02-04T11:58:21.414Z,4.30
2019-02-04T12:03:24.342Z,4.40
2019-02-04T12:08:27.466Z,4.50
2019-02-04T12:13:30.475Z,4.60
2019-02-04T12:18:33.214Z,4.60
2019-02-04T12:23:36.247Z,4.70
2019-02-04T12:28:39.432Z,4.70
2019-02-04T12:33:42.158Z,4.80
2019-02-04T12:38:45.339Z,4.80
2019-02-04T12:43:48.019Z,4.90
2019-02-04T12:48:51.441Z,4.90
2019-02-04T12:53:54.797Z,4.90
2019-02-04T12:58:58.524Z,4.90
2019-02-04T13:04:20.026Z,4.90
2019-02-04T13:09:28.932Z,5.00
2019-02-04T13:14:31.995Z,5.00
2019-02-04T13:19:35.234Z,5.10
2019-02-04T13:24:38.035Z,5.10
2019-02-04T13:29:40.831Z,5.20
2019-02-04T13:34:43.927Z,5.20
2019-02-04T13:39:47.891Z,5.20
2019-02-04T13:44:55.440Z,5.20
2019-02-04T13:49:57.975Z,5.20
2019-02-04T13:55:16.966Z,5.20
2019-02-04T14:00:21.975Z,5.20
2019-02-04T14:05:24.872Z,5.20
2019-02-04T14:10:33.243Z,5.10
2019-02-04T14:15:36.902Z,5.10
2019-02-04T14:20:40.058Z,5.10
2019-02-04T14:25:43.126Z,5.00
2019-02-04T14:30:46.294Z,5.00
2019-02-04T14:36:07.497Z,4.90
2019-02-04T14:41:30.331Z,4.80
2019-02-04T14:47:05.664Z,4.70
2019-02-04T14:53:23.668Z,4.60
2019-02-04T14:59:22.616Z,4.50
2019-02-04T15:05:13.359Z,4.40
2019-02-04T15:10:44.179Z,4.40
2019-02-04T15:15:58.406Z,4.20
2019-02-04T15:21:51.402Z,4.10
2019-02-04T15:27:46.122Z,4.00
2019-02-04T15:33:32.351Z,4.00
2019-02-04T15:39:09.797Z,4.00
2019-02-04T15:45:01.258Z,4.00
2019-02-04T15:50:43.988Z,3.60
2019-02-04T15:55:46.561Z,3.20
2019-02-04T16:00:49.556Z,2.90
2019-02-04T16:05:52.537Z,2.40
2019-02-04T16:10:55.617Z,1.80
2019-02-04T16:15:58.578Z,1.20
2019-02-04T16:21:01.155Z,0.50
2019-02-04T16:26:23.180Z,0.00
2019-02-04T16:31:26.083Z,-0.30
2019-02-04T16:36:28.680Z,-0.40
2019-02-04T16:41:31.285Z,-0.60
2019-02-04T16:46:33.860Z,-0.60
2019-02-04T16:51:36.772Z,-0.50
2019-02-04T16:56:39.259Z,-0.30
2019-02-04T17:01:41.800Z,0.00
2019-02-04T17:06:45.396Z,0.20
2019-02-04T17:11:48.618Z,0.50
2019-02-04T17:16:52.534Z,0.70
2019-02-04T17:21:55.555Z,0.90
2019-02-04T17:26:58.569Z,1.00
2019-02-04T17:32:01.677Z,1.10
2019-02-04T17:37:05.784Z,1.20
2019-02-04T17:42:09.423Z,1.30
2019-02-04T17:47:12.937Z,1.30
2019-02-04T17:52:15.759Z,1.40
2019-02-04T17:57:18.339Z,1.50
2019-02-04T18:02:21.109Z,1.60
2019-02-04T18:07:24.675Z,1.70
2019-02-04T18:12:27.164Z,1.70
2019-02-04T18:17:29.672Z,1.70
2019-02-04T18:22:32.426Z,1.70
2019-02-04T18:27:35.224Z,1.50
2019-02-04T18:32:37.811Z,1.50
2019-02-04T18:37:40.529Z,1.50
2019-02-04T18:42:44.370Z,1.50
2019-02-04T18:47:46.984Z,1.40
2019-02-04T18:52:50.363Z,1.20
2019-02-04T18:57:55.336Z,1.20
2019-02-04T19:02:58.824Z,1.30
2019-02-04T19:08:01.920Z,1.30
2019-02-04T19:13:04.848Z,1.30
2019-02-04T19:18:11.332Z,1.20
2019-02-04T19:23:17.261Z,1.10
2019-02-04T19:28:23.219Z,1.00
2019-02-04T19:33:26.576Z,0.90
2019-02-04T19:38:29.734Z,0.90
2019-02-04T19:43:33.317Z,0.80
2019-02-04T19:48:35.942Z,0.70
2019-02-04T19:53:38.503Z,0.70
2019-02-04T19:58:41.014Z,0.60
2019-02-04T20:03:44.145Z,0.30
2019-02-04T20:08:47.189Z,0.00
2019-02-04T20:13:50.728Z,-0.20
2019-02-04T20:18:53.952Z,-0.40
2019-02-04T20:23:56.607Z,-0.30
2019-02-04T20:28:59.607Z,-0.30
2019-02-04T20:34:02.913Z,-0.20
2019-02-04T20:39:08.622Z,-0.30
2019-02-04T20:44:11.916Z,-0.50
2019-02-04T20:49:14.450Z,-0.60
2019-02-04T20:54:20.676Z,-0.70
2019-02-04T20:59:22.523Z,-0.70
2019-02-04T21:04:25.146Z,-0.60
2019-02-04T21:09:27.680Z,-0.60
2019-02-04T21:14:30.631Z,-0.60
2019-02-04T21:19:33.438Z,-0.60
2019-02-04T21:24:37.823Z,-0.60
2019-02-04T21:29:40.559Z,-0.60
2019-02-04T21:34:43.769Z,-0.60
2019-02-04T21:40:07.614Z,-0.60
2019-02-04T21:45:28.664Z,-0.70
2019-02-04T21:50:50.142Z,-0.70
2019-02-04T21:56:11.047Z,-0.80
2019-02-04T22:01:32.319Z,-0.70
2019-02-04T22:06:53.410Z,-0.70
2019-02-04T22:12:14.826Z,-0.70
2019-02-04T22:17:35.756Z,-0.70
2019-02-04T22:22:57.444Z,-0.60
2019-02-04T22:28:18.736Z,-0.60
2019-02-04T22:33:40.243Z,-0.70
2019-02-04T22:39:02.294Z,-0.70
2019-02-04T22:44:25.660Z,-0.80
2019-02-04T22:49:46.635Z,-0.80
2019-02-04T22:55:08.243Z,-0.80
2019-02-04T23:01:09.831Z,-0.90
2019-02-04T23:06:31.904Z,-0.80
2019-02-04T23:11:53.427Z,-0.70
2019-02-04T23:17:16.504Z,-0.60
2019-02-04T23:22:37.516Z,-0.60
2019-02-04T23:27:59.338Z,-0.60
2019-02-04T23:33:20.463Z,-0.50
2019-02-04T23:38:41.598Z,-0.50
2019-02-04T23:44:03.255Z,-0.50
2019-02-04T23:49:24.567Z,-0.60
2019-02-04T23:54:49.111Z,-0.60
